createdAt,value
2022-08-17T00:00:43.125Z,27.16
2022-08-17T00:05:43.974Z,27.14
2022-08-17T00:10:45.585Z,27.09
2022-08-17T00:15:47.151Z,27.10
2022-08-17T00:20:48.553Z,27.11
2022-08-17T00:25:49.998Z,27.10
2022-08-17T00:30:53.404Z,27.13
2022-08-17T00:35:55.828Z,27.09
2022-08-17T00:41:02.869Z,27.13
2022-08-17T00:46:09.433Z,27.09
2022-08-17T00:51:23.487Z,27.12
2022-08-17T00:56:34.809Z,27.12
2022-08-17T01:01:36.355Z,27.08
2022-08-17T01:06:39.346Z,26.99
2022-08-17T01:11:40.819Z,27.05
2022-08-17T01:16:42.247Z,27.07
2022-08-17T01:22:05.108Z,27.04
2022-08-17T01:27:10.454Z,27.09
2022-08-17T01:32:12.418Z,27.11
2022-08-17T01:37:14.487Z,27.14
2022-08-17T01:42:34.931Z,27.12
2022-08-17T01:47:37.274Z,27.11
2022-08-17T01:52:38.725Z,27.05
2022-08-17T01:57:40.221Z,27.11
2022-08-17T02:02:41.638Z,27.13
2022-08-17T02:08:00.225Z,27.15
2022-08-17T02:13:02.984Z,27.12
2022-08-17T02:18:05.584Z,27.12
2022-08-17T02:23:08.761Z,27.13
2022-08-17T02:28:10.469Z,27.12
2022-08-17T02:33:11.904Z,27.17
2022-08-17T02:38:13.373Z,27.13
2022-08-17T02:43:14.823Z,27.11
2022-08-17T02:48:16.229Z,27.13
2022-08-17T02:53:35.615Z,27.12
2022-08-17T02:58:37.618Z,27.11
2022-08-17T03:03:39.166Z,27.12
2022-08-17T03:08:40.666Z,27.12
2022-08-17T03:13:42.091Z,27.12
2022-08-17T03:18:43.515Z,27.03
2022-08-17T03:23:44.911Z,27.08
2022-08-17T03:28:46.662Z,27.00
2022-08-17T03:33:48.118Z,27.04
2022-08-17T03:38:49.516Z,26.98
2022-08-17T03:43:52.565Z,27.08
2022-08-17T03:49:12.898Z,27.03
2022-08-17T03:54:32.617Z,27.06
2022-08-17T03:59:34.104Z,27.02
2022-08-17T04:04:35.993Z,26.99
2022-08-17T04:09:37.479Z,27.05
2022-08-17T04:14:52.296Z,26.95
2022-08-17T04:19:55.780Z,26.91
2022-08-17T04:24:57.184Z,27.00
2022-08-17T04:30:00.603Z,26.94
2022-08-17T04:35:02.013Z,26.96
2022-08-17T04:40:22.366Z,26.92
2022-08-17T04:45:27.313Z,26.93
2022-08-17T04:50:35.136Z,26.97
2022-08-17T04:55:36.600Z,26.98
2022-08-17T05:00:38.062Z,26.79
2022-08-17T05:05:42.968Z,26.94
2022-08-17T05:10:45.231Z,26.82
2022-08-17T05:15:48.125Z,26.97
2022-08-17T05:20:50.032Z,26.90
2022-08-17T05:25:58.140Z,26.92
2022-08-17T05:31:01.134Z,26.89
2022-08-17T05:36:03.693Z,26.90
2022-08-17T05:41:06.358Z,26.95
2022-08-17T05:46:11.088Z,26.92
2022-08-17T05:51:20.885Z,26.96
2022-08-17T05:56:37.277Z,26.92
2022-08-17T06:02:08.538Z,26.99
2022-08-17T06:07:24.700Z,26.94
2022-08-17T06:13:07.364Z,27.03
2022-08-17T06:18:09.430Z,26.98
2022-08-17T06:23:14.138Z,26.96
2022-08-17T06:28:22.135Z,26.95
2022-08-17T06:33:37.882Z,26.93
2022-08-17T06:38:53.429Z,26.95
2022-08-17T06:44:09.859Z,26.97
2022-08-17T06:49:26.126Z,26.99
2022-08-17T06:54:49.626Z,27.01
2022-08-17T07:00:18.285Z,27.04
2022-08-17T07:05:21.484Z,27.04
2022-08-17T07:10:23.997Z,27.05
2022-08-17T07:15:33.869Z,27.04
2022-08-17T07:20:35.281Z,27.03
2022-08-17T07:25:36.688Z,26.98
2022-08-17T07:30:48.777Z,27.01
2022-08-17T07:35:50.400Z,26.93
2022-08-17T07:40:58.043Z,26.84
2022-08-17T07:46:22.038Z,26.92
2022-08-17T07:51:28.424Z,26.89
2022-08-17T07:56:41.053Z,26.86
2022-08-17T08:01:48.960Z,26.97
2022-08-17T08:06:59.395Z,27.00
2022-08-17T08:12:35.161Z,26.98
2022-08-17T08:17:55.378Z,26.97
2022-08-17T08:23:10.939Z,26.96
2022-08-17T08:28:24.821Z,26.93
2022-08-17T08:34:09.172Z,26.97
2022-08-17T08:39:58.375Z,26.92
2022-08-17T08:45:15.980Z,26.94
2022-08-17T08:50:31.806Z,26.93
2022-08-17T08:56:14.580Z,26.89
2022-08-17T09:01:57.845Z,26.99
2022-08-17T09:07:09.278Z,26.94
2022-08-17T09:12:21.189Z,26.98
2022-08-17T09:17:34.001Z,26.99
2022-08-17T09:22:42.595Z,27.02
2022-08-17T09:28:04.485Z,26.99
2022-08-17T09:33:09.899Z,26.99
2022-08-17T09:38:17.141Z,27.16
2022-08-17T09:43:30.712Z,27.34
2022-08-17T09:48:57.385Z,27.46
2022-08-17T09:54:14.780Z,27.56
2022-08-17T09:59:38.582Z,27.64
2022-08-17T10:05:02.181Z,27.68
2022-08-17T10:10:08.658Z,27.53
2022-08-17T10:15:34.468Z,27.48
2022-08-17T10:20:49.582Z,27.41
2022-08-17T10:26:12.799Z,27.31
2022-08-17T10:31:34.635Z,27.23
2022-08-17T10:36:43.049Z,27.19
2022-08-17T10:41:47.099Z,27.15
2022-08-17T10:46:57.497Z,27.15
2022-08-17T10:52:00.758Z,27.17
2022-08-17T10:57:02.169Z,27.10
2022-08-17T11:02:17.729Z,27.18
2022-08-17T11:07:51.213Z,27.13
2022-08-17T11:13:10.850Z,27.10
2022-08-17T11:18:20.254Z,27.21
2022-08-17T11:23:33.591Z,27.05
2022-08-17T11:28:45.919Z,27.12
2022-08-17T11:34:21.183Z,27.19
2022-08-17T11:39:32.340Z,27.19
2022-08-17T11:44:59.350Z,27.18
2022-08-17T11:50:38.741Z,27.23
2022-08-17T11:55:44.410Z,27.16
2022-08-17T12:00:46.243Z,27.17
2022-08-17T12:05:47.679Z,27.16
2022-08-17T12:10:56.402Z,27.18
2022-08-17T12:15:57.831Z,27.13
2022-08-17T12:21:22.470Z,27.21
2022-08-17T12:26:34.476Z,27.22
2022-08-17T12:31:43.069Z,27.18
2022-08-17T12:36:44.533Z,27.23
2022-08-17T12:41:47.277Z,27.17
2022-08-17T12:47:01.683Z,27.14
2022-08-17T12:52:07.021Z,27.18
2022-08-17T12:57:17.700Z,27.24
2022-08-17T13:02:28.194Z,27.18
2022-08-17T13:07:32.529Z,27.29
2022-08-17T13:12:34.836Z,27.23
2022-08-17T13:17:36.570Z,27.29
2022-08-17T13:22:37.993Z,27.45
2022-08-17T13:27:39.399Z,27.59
2022-08-17T13:32:43.576Z,27.56
2022-08-17T13:38:01.146Z,27.50
2022-08-17T13:43:03.327Z,27.46
2022-08-17T13:48:08.686Z,27.46
2022-08-17T13:53:31.061Z,27.63
2022-08-17T13:58:40.593Z,27.71
2022-08-17T14:03:42.147Z,27.78
2022-08-17T14:08:45.794Z,27.64
2022-08-17T14:13:47.201Z,27.55
2022-08-17T14:18:56.956Z,27.54
2022-08-17T14:23:58.812Z,27.50
2022-08-17T14:29:00.220Z,27.42
2022-08-17T14:34:01.988Z,27.46
2022-08-17T14:39:03.689Z,27.43
2022-08-17T14:44:05.245Z,27.44
2022-08-17T14:49:07.801Z,27.42
2022-08-17T14:54:09.866Z,27.35
2022-08-17T14:59:11.265Z,27.33
2022-08-17T15:04:16.953Z,27.50
2022-08-17T15:09:18.377Z,27.53
2022-08-17T15:14:19.912Z,27.70
2022-08-17T15:19:21.313Z,27.78
2022-08-17T15:24:22.733Z,27.69
2022-08-17T15:29:24.157Z,27.87
2022-08-17T15:34:25.565Z,27.99
2022-08-17T15:39:27.025Z,27.90
2022-08-17T15:44:32.437Z,27.87
2022-08-17T15:49:39.739Z,28.01
2022-08-17T15:54:41.134Z,28.08
2022-08-17T15:59:47.166Z,28.11
2022-08-17T16:04:53.630Z,28.14
2022-08-17T16:09:55.722Z,28.15
2022-08-17T16:14:57.273Z,28.23
2022-08-17T16:19:58.872Z,28.02
2022-08-17T16:25:02.605Z,28.08
2022-08-17T16:30:05.529Z,28.05
2022-08-17T16:35:09.330Z,27.95
2022-08-17T16:40:11.471Z,27.83
2022-08-17T16:45:24.905Z,27.80
2022-08-17T16:50:26.581Z,27.72
2022-08-17T16:55:27.989Z,27.71
2022-08-17T17:00:29.820Z,27.83
2022-08-17T17:05:43.033Z,27.77
2022-08-17T17:10:49.382Z,27.76
2022-08-17T17:16:03.593Z,27.76
2022-08-17T17:21:06.146Z,27.74
2022-08-17T17:26:22.681Z,27.70
2022-08-17T17:31:25.208Z,27.74
2022-08-17T17:36:50.899Z,27.70
2022-08-17T17:41:54.678Z,27.67
2022-08-17T17:47:00.457Z,27.69
2022-08-17T17:52:19.443Z,27.67
2022-08-17T17:57:44.029Z,27.65
2022-08-17T18:03:04.257Z,27.66
2022-08-17T18:08:16.567Z,27.65
2022-08-17T18:13:26.563Z,27.67
2022-08-17T18:18:46.824Z,27.60
2022-08-17T18:24:05.081Z,27.64
2022-08-17T18:29:12.548Z,27.65
2022-08-17T18:39:47.406Z,27.66
2022-08-17T18:44:54.313Z,27.63
2022-08-17T18:49:58.408Z,27.59
2022-08-17T18:55:22.997Z,27.60
2022-08-17T19:00:30.329Z,27.51
2022-08-17T19:05:37.025Z,27.56
2022-08-17T19:10:46.993Z,27.63
2022-08-17T19:16:19.667Z,27.63
2022-08-17T19:21:27.229Z,27.62
2022-08-17T19:26:53.662Z,27.56
2022-08-17T19:31:52.805Z,27.63
2022-08-17T19:36:58.688Z,27.51
2022-08-17T19:42:06.673Z,27.55
2022-08-17T19:47:11.678Z,27.55
2022-08-17T19:52:26.300Z,27.58
2022-08-17T19:57:47.256Z,27.55
2022-08-17T20:03:16.396Z,27.52
2022-08-17T20:08:20.803Z,27.56
2022-08-17T20:13:52.249Z,27.54
2022-08-17T20:19:19.869Z,27.51
2022-08-17T20:24:41.665Z,27.44
2022-08-17T20:29:55.201Z,27.51
2022-08-17T20:35:24.327Z,27.42
2022-08-17T20:40:35.042Z,27.47
2022-08-17T20:45:52.570Z,27.54
2022-08-17T20:50:56.500Z,27.51
2022-08-17T20:55:57.935Z,27.49
2022-08-17T21:01:00.629Z,27.52
2022-08-17T21:06:16.829Z,27.48
2022-08-17T21:11:57.260Z,27.49
2022-08-17T21:17:07.238Z,27.42
2022-08-17T21:22:36.861Z,27.45
2022-08-17T21:28:01.321Z,27.48
2022-08-17T21:33:24.779Z,27.46
2022-08-17T21:38:37.307Z,27.44
2022-08-17T21:43:46.042Z,27.46
2022-08-17T21:48:49.187Z,27.44
2022-08-17T21:54:00.046Z,27.44
2022-08-17T21:59:08.563Z,27.39
2022-08-17T22:04:11.159Z,27.47
2022-08-17T22:09:21.437Z,27.43
2022-08-17T22:14:27.260Z,27.47
2022-08-17T22:20:14.318Z,27.43
2022-08-17T22:25:20.633Z,27.41
2022-08-17T22:30:26.209Z,27.41
2022-08-17T22:35:34.494Z,27.41
2022-08-17T22:40:35.895Z,27.37
2022-08-17T22:45:41.473Z,27.38
2022-08-17T22:50:42.874Z,27.40
2022-08-17T22:56:13.032Z,27.40
2022-08-17T23:01:28.922Z,27.31
2022-08-17T23:06:33.553Z,27.33
2022-08-17T23:11:48.740Z,27.35
2022-08-17T23:16:51.152Z,27.37
2022-08-17T23:21:54.062Z,27.33
2022-08-17T23:26:56.958Z,27.37
2022-08-17T23:31:59.631Z,27.34
2022-08-17T23:37:02.127Z,27.32
2022-08-17T23:42:05.209Z,27.34
2022-08-17T23:47:07.620Z,27.31
2022-08-17T23:52:12.462Z,27.29
2022-08-17T23:57:18.254Z,27.30
